Terminal Aerodrome Forecast
Issued by NWS Charleston, WV

Current Version | Previous Version | Graphics & Text | Print | Product List | Glossary On
Versions: 1 2 3 4 5 6 7 8 9 10 11 12 13 14 15 16 17 18 19 20 21 22 23 24 25 26 27 28
000
FTUS41 KRLX 221700 AAA
TAFPKB
TAF AMD
KPKB 221708Z 2217/2312 34007KT P6SM BKN025
     FM222100 34007KT P6SM BKN035
     FM230200 34005KT P6SM BKN200
     FM230600 VRB03KT P6SM SCT025
     FM230900 VRB03KT P6SM SCT140=

USA.gov is the U.S. government's official web portal to all federal, state and local government web resources and services.